createdAt,value
2018-09-02T05:17:37.741Z,6.97
2018-09-02T05:20:05.928Z,5.97
2018-09-02T05:22:34.017Z,6.13
2018-09-02T05:25:02.193Z,6.03
2018-09-02T05:27:30.274Z,6.50
2018-09-02T05:29:58.347Z,5.57
2018-09-02T05:32:26.412Z,6.03
2018-09-02T05:34:54.489Z,6.73
2018-09-02T05:37:22.605Z,6.40
2018-09-02T05:39:50.707Z,5.53
2018-09-02T05:42:18.779Z,5.70
2018-09-02T05:44:46.885Z,6.30
2018-09-02T05:47:14.964Z,6.50
2018-09-02T05:49:43.040Z,6.30
2018-09-02T05:52:11.195Z,5.30
2018-09-02T05:54:39.229Z,5.67
2018-09-02T05:57:07.404Z,6.17
2018-09-02T05:59:35.508Z,6.10
2018-09-02T06:02:03.849Z,6.90
2018-09-02T06:04:32.024Z,6.63
2018-09-02T06:07:00.085Z,6.77
2018-09-02T06:09:28.169Z,6.50
2018-09-02T06:11:56.260Z,7.40
2018-09-02T06:14:24.414Z,6.17
2018-09-02T06:16:52.514Z,5.97
2018-09-02T06:19:20.618Z,6.90
2018-09-02T06:21:48.731Z,5.80
2018-09-02T06:24:16.780Z,6.00
2018-09-02T06:26:44.980Z,6.87
2018-09-02T06:29:13.071Z,6.73
2018-09-02T06:31:41.164Z,5.83
2018-09-02T06:34:09.236Z,6.40
2018-09-02T06:36:37.368Z,6.40
2018-09-02T06:39:07.981Z,6.73
2018-09-02T06:41:36.097Z,5.73
2018-09-02T06:44:04.194Z,5.60
2018-09-02T06:46:32.252Z,6.90
2018-09-02T06:49:00.341Z,6.53
2018-09-02T06:51:28.463Z,9.13
2018-09-02T06:53:56.536Z,5.70
2018-09-02T06:56:24.629Z,6.67
2018-09-02T06:58:52.708Z,6.40
2018-09-02T07:01:21.197Z,6.20
2018-09-02T07:03:49.275Z,6.50
2018-09-02T07:06:17.412Z,6.13
2018-09-02T07:08:45.481Z,6.40
2018-09-02T07:11:13.551Z,6.30
2018-09-02T07:13:41.612Z,6.60
2018-09-02T07:16:09.709Z,6.10
2018-09-02T07:18:37.821Z,6.80
2018-09-02T07:21:05.944Z,6.80
2018-09-02T07:23:34.013Z,7.80
2018-09-02T07:26:02.101Z,7.53
2018-09-02T07:28:30.260Z,6.80
2018-09-02T07:30:58.331Z,7.50
2018-09-02T07:33:26.509Z,7.20
2018-09-02T07:35:54.580Z,6.80
2018-09-02T07:38:22.708Z,7.00
2018-09-02T07:40:51.671Z,7.50
2018-09-02T07:43:19.957Z,8.10
2018-09-02T07:45:48.027Z,7.47
2018-09-02T07:48:16.107Z,7.10
2018-09-02T07:50:44.208Z,6.10
2018-09-02T07:53:12.279Z,6.83
2018-09-02T07:55:40.360Z,7.00
2018-09-02T07:58:08.556Z,7.33
2018-09-02T08:00:36.730Z,7.87
2018-09-02T08:03:04.806Z,6.97
2018-09-02T08:05:32.979Z,7.50
2018-09-02T08:08:01.050Z,7.23
2018-09-02T08:10:29.121Z,6.43
2018-09-02T08:12:57.363Z,8.87
2018-09-02T08:15:25.305Z,6.60
2018-09-02T08:17:53.442Z,6.70
2018-09-02T08:20:21.519Z,6.53
2018-09-02T08:22:49.607Z,6.60
2018-09-02T08:25:17.691Z,6.50
2018-09-02T08:27:46.836Z,7.00
2018-09-02T08:30:15.147Z,7.20
2018-09-02T08:32:44.047Z,6.17
2018-09-02T08:35:12.133Z,6.40
2018-09-02T08:37:40.291Z,6.47
2018-09-02T08:40:08.345Z,6.10
2018-09-02T08:42:36.513Z,6.30
2018-09-02T08:45:05.202Z,7.17
2018-09-02T08:47:33.273Z,6.63
2018-09-02T08:50:01.369Z,7.17
2018-09-02T08:52:29.458Z,6.40
2018-09-02T08:54:57.597Z,7.20
2018-09-02T08:57:25.689Z,6.17
2018-09-02T08:59:53.786Z,5.80
2018-09-02T09:02:21.930Z,6.03
2018-09-02T09:04:50.193Z,6.10
2018-09-02T09:07:18.268Z,7.13
2018-09-02T09:09:46.371Z,8.20
2018-09-02T09:12:14.519Z,7.00
2018-09-02T09:14:42.785Z,8.13
2018-09-02T09:17:10.990Z,7.20
2018-09-02T09:19:38.973Z,8.33
2018-09-02T09:22:07.132Z,6.83
2018-09-02T09:24:35.274Z,7.30
2018-09-02T09:27:03.489Z,7.27
2018-09-02T09:29:31.769Z,8.27
2018-09-02T09:31:59.853Z,7.17
2018-09-02T09:34:27.933Z,8.57
2018-09-02T09:36:56.012Z,8.30
2018-09-02T09:39:24.114Z,8.40
2018-09-02T09:41:52.289Z,8.03
2018-09-02T09:44:20.377Z,7.63
2018-09-02T09:46:48.484Z,7.30
2018-09-02T09:49:16.606Z,8.13
2018-09-02T09:51:44.728Z,8.10
2018-09-02T09:54:12.848Z,7.20
2018-09-02T09:56:40.989Z,9.40
2018-09-02T09:59:09.202Z,7.50
2018-09-02T10:01:36.863Z,7.60
2018-09-02T10:04:04.932Z,7.87
2018-09-02T10:06:33.110Z,8.43
2018-09-02T10:09:01.200Z,9.60
2018-09-02T10:11:29.356Z,9.20
2018-09-02T10:13:57.448Z,9.57
2018-09-02T10:16:25.528Z,10.20
2018-09-02T10:18:53.620Z,9.97
2018-09-02T10:21:21.747Z,9.47
2018-09-02T10:23:49.958Z,10.67
2018-09-02T10:26:18.099Z,10.80
2018-09-02T10:28:46.390Z,11.07
2018-09-02T10:31:14.472Z,10.40
2018-09-02T10:33:42.619Z,10.33
2018-09-02T10:36:10.717Z,10.90
2018-09-02T10:38:38.797Z,10.67
2018-09-02T10:41:06.917Z,9.73
2018-09-02T10:43:34.973Z,9.50
2018-09-02T10:46:03.060Z,10.73
2018-09-02T10:48:31.255Z,10.47
2018-09-02T10:50:59.326Z,10.30
2018-09-02T10:53:28.426Z,10.77
2018-09-02T10:55:56.488Z,9.60
2018-09-02T10:58:24.670Z,9.73
2018-09-02T11:00:53.765Z,8.17
2018-09-02T11:03:21.836Z,8.03
2018-09-02T11:05:49.937Z,9.70
2018-09-02T11:08:18.067Z,9.77
2018-09-02T11:10:46.208Z,10.37
2018-09-02T11:13:14.447Z,10.00
2018-09-02T11:15:42.425Z,10.40
2018-09-02T11:18:10.534Z,10.00
2018-09-02T11:20:38.628Z,10.27
2018-09-02T11:23:06.732Z,10.23
2018-09-02T11:25:34.861Z,10.60
2018-09-02T11:28:03.284Z,11.40
2018-09-02T11:30:31.367Z,11.23
2018-09-02T11:32:59.481Z,10.63
2018-09-02T11:35:27.611Z,10.90
2018-09-02T11:37:55.709Z,12.03
2018-09-02T11:40:23.797Z,10.37
2018-09-02T11:42:51.913Z,10.93
2018-09-02T11:45:20.037Z,11.70
2018-09-02T11:47:48.184Z,10.60
2018-09-02T11:50:16.293Z,11.17
2018-09-02T11:52:44.552Z,11.80
2018-09-02T11:55:12.677Z,11.90
2018-09-02T11:57:40.909Z,10.43
2018-09-02T12:00:09.133Z,10.00
2018-09-02T12:02:36.787Z,9.53
2018-09-02T12:05:04.979Z,9.53
2018-09-02T12:07:33.076Z,10.67
2018-09-02T12:10:01.176Z,10.60
2018-09-02T12:12:29.269Z,11.37
2018-09-02T12:14:57.622Z,11.40
2018-09-02T12:17:25.580Z,12.33
2018-09-02T12:19:53.706Z,10.70
2018-09-02T12:22:21.836Z,11.00
2018-09-02T12:24:50.048Z,11.07
2018-09-02T12:27:18.211Z,11.23
2018-09-02T12:29:46.457Z,11.03
2018-09-02T12:32:14.554Z,11.70
2018-09-02T12:34:42.858Z,9.93
2018-09-02T12:37:10.945Z,11.40
2018-09-02T12:39:38.626Z,9.17
2018-09-02T12:42:06.717Z,8.80
2018-09-02T12:44:34.835Z,9.00
2018-09-02T12:47:02.919Z,8.93
2018-09-02T12:49:31.085Z,8.03
2018-09-02T12:51:59.180Z,9.30
2018-09-02T12:54:27.469Z,10.30
2018-09-02T12:56:55.560Z,11.47
2018-09-02T12:59:23.656Z,11.40
2018-09-02T13:01:51.357Z,10.93
2018-09-02T13:04:19.503Z,11.10
2018-09-02T13:06:47.584Z,11.73
2018-09-02T13:09:15.788Z,11.13
2018-09-02T13:11:43.910Z,11.43
2018-09-02T13:14:11.993Z,13.27
2018-09-02T13:16:40.095Z,13.23
2018-09-02T13:19:08.255Z,12.63
2018-09-02T13:21:36.427Z,13.43
2018-09-02T13:24:04.876Z,14.43
2018-09-02T13:26:33.029Z,13.53
2018-09-02T13:29:01.462Z,12.73
2018-09-02T13:31:29.851Z,12.57
2018-09-02T13:33:57.954Z,13.47
2018-09-02T13:36:26.052Z,14.33
2018-09-02T13:38:54.293Z,13.33
2018-09-02T13:41:22.368Z,13.80
2018-09-02T13:43:50.581Z,13.27
2018-09-02T13:46:18.765Z,13.60
2018-09-02T13:48:46.960Z,12.87
2018-09-02T13:51:15.032Z,12.50
2018-09-02T13:53:43.243Z,12.97
2018-09-02T13:56:11.409Z,14.57
2018-09-02T13:58:39.622Z,13.73
2018-09-02T14:01:07.797Z,13.83
2018-09-02T14:03:35.380Z,14.07
2018-09-02T14:06:03.505Z,14.13
2018-09-02T14:08:31.611Z,14.53
2018-09-02T14:10:59.765Z,14.70
2018-09-02T14:13:27.905Z,15.60
2018-09-02T14:15:56.060Z,14.80
2018-09-02T14:18:24.233Z,14.30
2018-09-02T14:20:52.576Z,14.20
2018-09-02T14:23:20.788Z,14.87
2018-09-02T14:25:48.933Z,14.00
2018-09-02T14:28:17.258Z,14.63
2018-09-02T14:30:45.585Z,15.50
2018-09-02T14:33:13.751Z,15.73
2018-09-02T14:35:41.845Z,13.53
2018-09-02T14:38:10.003Z,14.83
2018-09-02T14:40:38.384Z,15.60
2018-09-02T14:43:06.518Z,15.10
2018-09-02T14:45:34.590Z,14.40
2018-09-02T14:48:02.715Z,15.70
2018-09-02T14:50:30.973Z,14.80
2018-09-02T14:52:59.262Z,14.53
2018-09-02T14:55:27.465Z,15.20
2018-09-02T14:57:55.557Z,14.90
2018-09-02T15:00:23.708Z,15.87
2018-09-02T15:02:51.376Z,16.77
2018-09-02T15:05:19.524Z,15.30
2018-09-02T15:07:47.656Z,16.60
2018-09-02T15:10:15.857Z,16.00
2018-09-02T15:12:43.932Z,17.30
2018-09-02T15:15:12.093Z,16.47
2018-09-02T15:17:40.176Z,17.90
2018-09-02T15:20:08.291Z,18.27
2018-09-02T15:22:36.358Z,16.90
2018-09-02T15:25:04.465Z,16.37
2018-09-02T15:27:32.541Z,17.00
2018-09-02T15:30:00.641Z,18.13
2018-09-02T15:32:28.743Z,18.90
2018-09-02T15:34:56.836Z,20.50
2018-09-02T15:37:24.995Z,19.87
2018-09-02T15:39:53.122Z,21.73
2018-09-02T15:42:21.196Z,20.67
2018-09-02T15:44:49.290Z,20.63
2018-09-02T15:47:17.386Z,21.73
2018-09-02T15:49:45.525Z,20.87
2018-09-02T15:52:13.596Z,22.50
2018-09-02T15:54:41.692Z,23.03
2018-09-02T15:57:09.777Z,24.20
2018-09-02T15:59:37.891Z,21.87
2018-09-02T16:02:05.715Z,25.20
2018-09-02T16:04:33.825Z,24.90
2018-09-02T16:07:05.647Z,27.30
2018-09-02T16:09:33.737Z,26.10
2018-09-02T16:12:01.922Z,24.57
2018-09-02T16:14:30.034Z,26.27
2018-09-02T16:16:58.146Z,25.43
2018-09-02T16:19:26.246Z,24.60
2018-09-02T16:21:54.325Z,22.87
2018-09-02T16:24:22.561Z,23.60
2018-09-02T16:26:50.635Z,22.70
2018-09-02T16:29:18.857Z,24.60
2018-09-02T16:31:46.904Z,21.53
2018-09-02T16:34:15.069Z,23.40
2018-09-02T16:36:43.178Z,24.13
2018-09-02T16:39:11.854Z,23.73
2018-09-02T16:41:39.968Z,25.33
2018-09-02T16:44:08.057Z,26.03
2018-09-02T16:46:36.133Z,25.50
2018-09-02T16:49:04.214Z,25.73
2018-09-02T16:51:32.297Z,24.10
2018-09-02T16:54:00.381Z,25.50
2018-09-02T16:56:28.499Z,25.03
2018-09-02T16:58:56.561Z,25.27
2018-09-02T17:01:24.652Z,25.43
2018-09-02T17:04:00.860Z,24.63
2018-09-02T17:06:29.002Z,25.20
2018-09-02T17:08:57.080Z,26.33
2018-09-02T17:11:25.192Z,23.37
2018-09-02T17:13:53.313Z,23.73
2018-09-02T17:16:21.420Z,24.43
2018-09-02T17:18:52.066Z,25.50
2018-09-02T17:21:20.197Z,24.27
2018-09-02T17:23:48.376Z,25.30
2018-09-02T17:26:16.572Z,22.87
2018-09-02T17:28:44.618Z,25.17
2018-09-02T17:31:12.812Z,24.33
2018-09-02T17:33:40.925Z,22.20
2018-09-02T17:36:09.020Z,24.60
2018-09-02T17:38:37.111Z,22.97
2018-09-02T17:41:05.257Z,21.87
2018-09-02T17:43:33.408Z,21.23
2018-09-02T17:46:01.560Z,22.50
2018-09-02T17:48:29.708Z,21.30
2018-09-02T17:50:57.813Z,23.30
2018-09-02T17:53:25.888Z,21.17
2018-09-02T17:55:54.153Z,21.57
2018-09-02T17:58:22.197Z,23.50
2018-09-02T18:00:53.044Z,23.53
2018-09-02T18:03:21.180Z,22.83
2018-09-02T18:05:49.241Z,21.77
2018-09-02T18:08:17.395Z,19.50
2018-09-02T18:10:45.449Z,19.70
2018-09-02T18:13:13.603Z,21.80
2018-09-02T18:15:43.130Z,22.63
2018-09-02T18:18:11.283Z,22.40
2018-09-02T18:20:39.483Z,21.80
2018-09-02T18:23:07.564Z,20.77
2018-09-02T18:25:35.657Z,22.50
2018-09-02T18:28:06.130Z,21.37
2018-09-02T18:30:34.201Z,20.50
2018-09-02T18:33:02.378Z,20.17
2018-09-02T18:35:30.441Z,23.67
2018-09-02T18:37:58.520Z,23.70
2018-09-02T18:40:26.607Z,22.30
2018-09-02T18:42:54.720Z,23.43
2018-09-02T18:45:22.936Z,23.13
2018-09-02T18:47:50.911Z,23.17
2018-09-02T18:50:19.072Z,21.57
2018-09-02T18:52:47.263Z,22.50
2018-09-02T18:55:15.376Z,23.67
2018-09-02T18:57:43.537Z,24.50
2018-09-02T19:00:11.678Z,27.27
2018-09-02T19:02:39.785Z,26.00
2018-09-02T19:05:07.373Z,25.43
2018-09-02T19:07:35.485Z,28.20
2018-09-02T19:10:03.697Z,26.07
2018-09-02T19:12:31.781Z,28.20
2018-09-02T19:14:59.870Z,26.20
2018-09-02T19:17:28.899Z,26.23
2018-09-02T19:19:56.976Z,27.10
2018-09-02T19:22:25.048Z,24.90
2018-09-02T19:24:53.379Z,27.00
2018-09-02T19:27:21.453Z,27.50
2018-09-02T19:29:49.525Z,27.40
2018-09-02T19:32:17.637Z,26.87
2018-09-02T19:34:45.709Z,27.13
2018-09-02T19:37:13.789Z,27.00
2018-09-02T19:39:41.869Z,27.60
2018-09-02T19:42:10.038Z,27.60
2018-09-02T19:44:38.203Z,28.33
2018-09-02T19:47:06.315Z,30.80
2018-09-02T19:49:34.438Z,29.00
2018-09-02T19:52:02.556Z,26.83
2018-09-02T19:54:30.644Z,28.33
2018-09-02T19:56:58.769Z,29.90
2018-09-02T19:59:26.840Z,28.70
2018-09-02T20:01:54.911Z,28.73
2018-09-02T20:04:23.030Z,28.80
2018-09-02T20:06:51.267Z,29.77
2018-09-02T20:09:19.436Z,29.03
2018-09-02T20:11:47.619Z,26.97
2018-09-02T20:14:15.792Z,26.23
2018-09-02T20:16:43.885Z,27.07
2018-09-02T20:19:12.285Z,28.17
2018-09-02T20:21:40.325Z,30.27
2018-09-02T20:24:08.408Z,26.53
2018-09-02T20:26:36.904Z,27.87
2018-09-02T20:29:04.980Z,32.27
2018-09-02T20:31:33.154Z,29.40
2018-09-02T20:34:01.373Z,29.50
2018-09-02T20:36:29.464Z,31.37
2018-09-02T20:38:57.739Z,28.73
2018-09-02T20:41:35.415Z,30.50
2018-09-02T20:44:03.811Z,29.57
2018-09-02T20:46:41.096Z,29.57
2018-09-02T20:49:09.515Z,31.90
2018-09-02T20:51:37.932Z,31.00
2018-09-02T20:54:08.107Z,29.57
2018-09-02T20:56:36.607Z,31.00
2018-09-02T20:59:07.707Z,30.97
2018-09-02T21:01:35.764Z,32.57
2018-09-02T21:04:09.595Z,30.53
2018-09-02T21:06:37.258Z,30.83
2018-09-02T21:09:23.945Z,30.77
2018-09-02T21:11:55.072Z,29.70
2018-09-02T21:14:25.639Z,30.63
2018-09-02T21:16:57.453Z,29.50
2018-09-02T21:19:29.612Z,29.53
2018-09-02T21:22:07.612Z,29.43
2018-09-02T21:24:46.381Z,31.37
2018-09-02T21:27:14.609Z,30.73
2018-09-02T21:29:47.032Z,29.37
2018-09-02T21:32:15.308Z,31.30
2018-09-02T21:34:46.428Z,29.63
2018-09-02T21:37:16.589Z,32.20
2018-09-02T21:39:44.895Z,31.97
2018-09-02T21:42:21.896Z,33.20
2018-09-02T21:44:50.157Z,32.23
2018-09-02T21:47:24.961Z,31.40
2018-09-02T21:49:54.988Z,33.00
2018-09-02T21:52:26.610Z,34.47
2018-09-02T21:54:56.301Z,36.50
2018-09-02T21:57:34.537Z,33.80
2018-09-02T22:00:03.457Z,36.77
2018-09-02T22:02:41.436Z,33.70
2018-09-02T22:05:11.117Z,33.80
2018-09-02T22:07:46.566Z,33.37
2018-09-02T22:10:18.134Z,33.70
2018-09-02T22:12:46.310Z,34.20
2018-09-02T22:15:16.734Z,33.77
2018-09-02T22:17:46.243Z,32.67
2018-09-02T22:20:21.217Z,32.47
2018-09-02T22:22:57.894Z,30.47
2018-09-02T22:25:27.459Z,32.47
2018-09-02T22:28:06.022Z,34.97
2018-09-02T22:33:10.925Z,34.20
2018-09-02T22:35:48.314Z,35.10
2018-09-02T22:38:25.706Z,32.53
2018-09-02T22:40:55.776Z,33.20
2018-09-02T22:43:23.857Z,34.03
